North Wichita, Kansas
Current Conditions -  °F | °C
As of 5:54 AM on Thursday 23 Oct 2014 (Local Time) from KAAO Reporting Station
Overcast Overcast  
Wind Chill: 61°   Ceiling: 4400
Heat Index: 61°   Visibility: 10mi
Dew Point: 58°   Wind: 9mph
Humidity: 90%   Direction: 210°SSW
Pressure: 30.08"   Gusts: NA
Location:  37.7735°N, 97.3663°W
Report Text: KAAO 231054Z AUTO 21008KT 10SM OVC044 16/14 A3008 RMK AO2 SLP178 T01610144 $
Loading
Personal Weather Stations






























Interactive Weather Map
Tropical Storm Tracking
New forecast layout! Learn more

10-Day Weather Forecast

Advertisements
Track Severe Weather on mobile